Ensenada, BCN, Mexico
Current Conditions -  °F | °C
As of 4:43 PM on Saturday 25 Oct 2014 (Local Time) from MMTJ Reporting Station
Clear Clear  
Wind Chill: 72°   Ceiling: Unl
Heat Index: 72°   Visibility: 7mi
Dew Point: 57°   Wind: 7mph
Humidity: 60%   Direction: 290°WNW
Pressure: 30.03"   Gusts: NA
Location:  31.87°N, 116.62°W
Report Text: MMTJ 252343Z 29006KT 7SM SKC 22/14 A3003 RMK SLP175 57010 928 HZY ISOL ST
Loading
Personal Weather Stations






























Interactive Weather Map
Tropical Storm Tracking
New forecast layout! Learn more

10-Day Weather Forecast

Advertisements
Track Severe Weather on mobile